createdAt,value
2022-12-31T00:02:11.467Z,85.46
2022-12-31T00:05:14.772Z,85.76
2022-12-31T00:08:17.288Z,85.59
2022-12-31T00:11:22.082Z,85.59
2022-12-31T00:14:24.666Z,85.59
2022-12-31T00:17:27.213Z,85.77
2022-12-31T00:20:30.033Z,85.70
2022-12-31T00:23:32.564Z,86.08
2022-12-31T00:26:35.175Z,86.37
2022-12-31T00:29:37.597Z,86.31
2022-12-31T00:32:41.041Z,86.58
2022-12-31T00:35:43.400Z,86.48
2022-12-31T00:38:47.913Z,86.79
2022-12-31T00:41:50.392Z,87.17
2022-12-31T00:44:52.871Z,87.55
2022-12-31T00:47:55.235Z,88.06
2022-12-31T00:50:58.243Z,88.07
2022-12-31T00:54:01.100Z,88.40
2022-12-31T00:57:03.702Z,88.62
2022-12-31T01:00:07.675Z,88.74
2022-12-31T01:03:10.813Z,89.00
2022-12-31T01:06:13.811Z,88.96
2022-12-31T01:09:17.200Z,89.26
2022-12-31T01:12:19.610Z,88.93
2022-12-31T01:15:22.055Z,88.67
2022-12-31T01:18:24.564Z,88.65
2022-12-31T01:21:27.661Z,88.78
2022-12-31T01:24:30.208Z,88.74
2022-12-31T01:27:32.631Z,88.85
2022-12-31T01:30:39.033Z,89.01
2022-12-31T01:33:42.546Z,88.69
2022-12-31T01:36:45.084Z,88.83
2022-12-31T01:39:47.709Z,88.78
2022-12-31T01:42:57.937Z,88.72
2022-12-31T01:46:00.727Z,88.21
2022-12-31T01:49:11.207Z,88.11
2022-12-31T01:52:17.033Z,87.77
2022-12-31T01:55:33.429Z,87.20
2022-12-31T01:58:42.682Z,87.37
2022-12-31T02:01:48.256Z,87.55
2022-12-31T02:04:54.567Z,87.95
2022-12-31T02:07:57.675Z,88.04
2022-12-31T02:11:00.103Z,87.58
2022-12-31T02:14:08.013Z,87.23
2022-12-31T02:17:32.583Z,87.05
2022-12-31T02:20:59.980Z,86.77
2022-12-31T02:24:16.681Z,86.34
2022-12-31T02:27:45.157Z,86.44
2022-12-31T02:30:51.721Z,86.35
2022-12-31T02:34:06.122Z,86.43
2022-12-31T02:37:12.838Z,86.65
2022-12-31T02:40:19.917Z,86.69
2022-12-31T02:43:22.549Z,86.90
2022-12-31T02:46:36.647Z,86.74
2022-12-31T02:50:00.222Z,86.69
2022-12-31T02:53:08.727Z,86.36
2022-12-31T02:56:13.919Z,85.98
2022-12-31T02:59:44.401Z,86.75
2022-12-31T03:02:49.069Z,86.97
2022-12-31T03:05:51.892Z,87.40
2022-12-31T03:09:12.810Z,87.60
2022-12-31T03:12:34.329Z,87.31
2022-12-31T03:15:37.073Z,86.80
2022-12-31T03:18:57.986Z,86.74
2022-12-31T03:22:19.558Z,87.18
2022-12-31T03:25:38.963Z,87.25
2022-12-31T03:28:47.854Z,87.48
2022-12-31T03:31:50.687Z,87.51
2022-12-31T03:34:53.207Z,87.54
2022-12-31T03:37:56.693Z,87.48
2022-12-31T03:40:59.314Z,87.48
2022-12-31T03:44:01.721Z,87.48
2022-12-31T03:47:04.218Z,87.38
2022-12-31T03:50:08.910Z,87.48
2022-12-31T03:53:11.471Z,87.53
2022-12-31T03:56:13.891Z,87.40
2022-12-31T03:59:16.537Z,86.95
2022-12-31T04:02:22.040Z,87.13
2022-12-31T04:05:29.233Z,86.86
2022-12-31T04:08:31.719Z,86.93
2022-12-31T04:11:34.249Z,86.84
2022-12-31T04:14:36.752Z,86.59
2022-12-31T04:17:39.272Z,86.86
2022-12-31T04:20:41.901Z,87.08
2022-12-31T04:23:44.501Z,87.21
2022-12-31T04:26:46.975Z,87.13
2022-12-31T04:29:49.875Z,87.33
2022-12-31T04:32:52.777Z,87.40
2022-12-31T04:36:01.606Z,87.35
2022-12-31T04:39:05.166Z,87.04
2022-12-31T04:42:07.748Z,87.03
2022-12-31T04:45:10.647Z,87.08
2022-12-31T04:48:13.157Z,87.12
2022-12-31T04:51:15.959Z,87.30
2022-12-31T04:54:18.443Z,87.69
2022-12-31T04:57:20.957Z,87.55
2022-12-31T05:00:23.489Z,87.49
2022-12-31T05:03:27.135Z,87.20
2022-12-31T05:06:29.983Z,86.86
2022-12-31T05:09:32.617Z,86.56
2022-12-31T05:12:35.057Z,86.51
2022-12-31T05:15:37.681Z,86.73
2022-12-31T05:18:40.280Z,86.48
2022-12-31T05:21:42.914Z,86.81
2022-12-31T05:24:45.347Z,86.90
2022-12-31T05:27:47.863Z,87.02
2022-12-31T05:30:51.518Z,86.71
2022-12-31T05:33:54.042Z,86.51
2022-12-31T05:36:56.446Z,86.45
2022-12-31T05:39:59.589Z,86.48
2022-12-31T05:43:02.174Z,86.14
2022-12-31T05:46:04.972Z,86.17
2022-12-31T05:49:07.708Z,86.22
2022-12-31T05:52:10.740Z,86.24
2022-12-31T05:55:13.706Z,86.39
2022-12-31T05:58:16.951Z,86.02
2022-12-31T06:01:19.539Z,86.49
2022-12-31T06:04:22.204Z,86.90
2022-12-31T06:07:24.612Z,86.64
2022-12-31T06:10:27.078Z,86.27
2022-12-31T06:13:29.985Z,85.93
2022-12-31T06:16:32.442Z,86.11
2022-12-31T06:19:36.044Z,86.15
2022-12-31T06:22:38.451Z,85.90
2022-12-31T06:25:42.084Z,85.70
2022-12-31T06:28:44.833Z,86.10
2022-12-31T06:31:47.277Z,86.48
2022-12-31T06:34:49.729Z,86.63
2022-12-31T06:37:52.455Z,86.83
2022-12-31T06:40:55.135Z,86.81
2022-12-31T06:43:57.619Z,86.29
2022-12-31T06:47:01.781Z,86.58
2022-12-31T06:50:05.344Z,86.28
2022-12-31T06:53:08.117Z,86.21
2022-12-31T06:56:34.425Z,86.44
2022-12-31T06:59:38.262Z,86.77
2022-12-31T07:03:19.969Z,86.56
2022-12-31T07:06:44.260Z,86.57
2022-12-31T07:10:15.248Z,86.56
2022-12-31T07:13:41.865Z,86.33
2022-12-31T07:16:57.579Z,86.19
2022-12-31T07:20:00.238Z,86.30
2022-12-31T07:23:03.002Z,86.01
2022-12-31T07:26:38.030Z,85.85
2022-12-31T07:30:01.977Z,85.56
2022-12-31T07:33:13.257Z,85.59
2022-12-31T07:36:53.312Z,86.07
2022-12-31T07:40:17.103Z,86.13
2022-12-31T07:43:35.402Z,86.84
2022-12-31T07:46:56.862Z,86.80
2022-12-31T07:49:59.586Z,86.55
2022-12-31T07:53:02.210Z,86.02
2022-12-31T07:56:09.812Z,85.94
2022-12-31T07:59:34.038Z,86.43
2022-12-31T08:02:55.132Z,86.24
2022-12-31T08:06:33.548Z,85.77
2022-12-31T08:09:41.766Z,86.02
2022-12-31T08:12:46.009Z,86.07
2022-12-31T08:15:48.853Z,85.42
2022-12-31T08:18:51.532Z,84.67
2022-12-31T08:22:22.081Z,84.73
2022-12-31T08:25:35.209Z,84.92
2022-12-31T08:29:21.930Z,84.94
2022-12-31T08:32:30.652Z,84.82
2022-12-31T08:36:10.534Z,85.19
2022-12-31T08:39:25.140Z,85.12
2022-12-31T08:42:37.051Z,84.72
2022-12-31T08:45:46.503Z,84.72
2022-12-31T08:48:49.318Z,85.00
2022-12-31T08:51:52.163Z,84.83
2022-12-31T08:54:54.931Z,84.20
2022-12-31T08:58:26.327Z,84.68
2022-12-31T09:01:39.917Z,85.92
2022-12-31T09:05:24.199Z,87.07
2022-12-31T09:08:41.892Z,86.83
2022-12-31T09:12:07.730Z,85.40
2022-12-31T09:15:15.829Z,84.41
2022-12-31T09:18:18.959Z,84.17
2022-12-31T09:21:21.723Z,83.32
2022-12-31T09:24:24.503Z,83.16
2022-12-31T09:27:56.131Z,83.43
2022-12-31T09:31:12.918Z,84.10
2022-12-31T09:34:26.403Z,84.06
2022-12-31T09:37:49.889Z,84.06
2022-12-31T09:41:15.958Z,83.19
2022-12-31T09:44:42.843Z,81.70
2022-12-31T09:48:13.115Z,79.94
2022-12-31T09:51:25.532Z,79.01
2022-12-31T09:54:39.191Z,78.99
2022-12-31T09:57:45.407Z,78.82
2022-12-31T10:00:58.745Z,78.55
2022-12-31T10:04:19.088Z,78.39
2022-12-31T10:07:48.786Z,78.68
2022-12-31T10:10:59.533Z,78.44
2022-12-31T10:14:23.862Z,78.33
2022-12-31T10:17:48.979Z,78.50
2022-12-31T10:21:13.281Z,78.30
2022-12-31T10:24:36.693Z,77.28
2022-12-31T10:28:05.720Z,77.80
2022-12-31T10:31:15.419Z,77.17
2022-12-31T10:34:36.879Z,77.17
2022-12-31T10:38:17.618Z,77.27
2022-12-31T10:41:33.886Z,78.15
2022-12-31T10:44:54.784Z,78.38
2022-12-31T10:48:10.689Z,79.31
2022-12-31T10:51:19.198Z,79.54
2022-12-31T10:54:48.683Z,79.83
2022-12-31T10:58:06.503Z,80.53
2022-12-31T11:01:30.495Z,80.04
2022-12-31T11:05:11.386Z,80.17
2022-12-31T11:09:07.092Z,80.09
2022-12-31T11:12:21.501Z,80.14
2022-12-31T11:15:55.185Z,79.99
2022-12-31T11:19:19.156Z,79.32
2022-12-31T11:22:42.564Z,78.76
2022-12-31T11:26:08.624Z,78.40
2022-12-31T11:30:01.328Z,77.58
2022-12-31T11:33:33.342Z,76.80
2022-12-31T11:36:44.476Z,76.55
2022-12-31T11:39:56.118Z,76.56
2022-12-31T11:43:11.100Z,76.13
2022-12-31T11:46:16.760Z,75.64
2022-12-31T11:49:26.265Z,74.98
2022-12-31T11:52:47.539Z,74.73
2022-12-31T11:56:06.617Z,75.21
2022-12-31T11:59:18.993Z,75.39
2022-12-31T12:02:29.028Z,75.63
2022-12-31T12:05:33.857Z,75.59
2022-12-31T12:08:36.664Z,75.02
2022-12-31T12:11:40.681Z,74.83
2022-12-31T12:14:45.417Z,74.46
2022-12-31T12:17:54.159Z,73.81
2022-12-31T12:21:08.731Z,73.40
2022-12-31T12:24:22.492Z,73.53
2022-12-31T12:27:30.064Z,73.52
2022-12-31T12:30:38.612Z,73.87
2022-12-31T12:33:43.835Z,74.22
2022-12-31T12:36:48.364Z,74.40
2022-12-31T12:40:02.179Z,74.56
2022-12-31T12:43:04.754Z,74.39
2022-12-31T12:46:17.308Z,73.87
2022-12-31T12:49:24.681Z,71.85
2022-12-31T12:52:41.707Z,71.10
2022-12-31T12:56:08.237Z,71.23
2022-12-31T12:59:31.991Z,70.70
2022-12-31T13:02:43.314Z,71.41
2022-12-31T13:06:07.271Z,71.59
2022-12-31T13:09:27.859Z,72.67
2022-12-31T13:13:22.091Z,73.31
2022-12-31T13:16:19.159Z,73.78
2022-12-31T13:19:31.019Z,74.00
2022-12-31T13:22:59.072Z,73.99
2022-12-31T13:26:21.773Z,74.69
2022-12-31T13:29:31.388Z,74.87
2022-12-31T13:32:59.633Z,74.83
2022-12-31T13:36:07.497Z,75.46
2022-12-31T13:39:19.205Z,75.75
2022-12-31T13:42:29.715Z,75.21
2022-12-31T13:45:41.750Z,75.35
2022-12-31T13:48:53.481Z,75.27
2022-12-31T13:52:12.607Z,75.72
2022-12-31T13:55:23.031Z,75.62
2022-12-31T13:58:31.675Z,75.53
2022-12-31T14:01:41.056Z,75.23
2022-12-31T14:04:50.686Z,75.71
2022-12-31T14:08:01.930Z,76.01
2022-12-31T14:11:18.076Z,76.52
2022-12-31T14:14:28.453Z,76.98
2022-12-31T14:17:39.165Z,77.53
2022-12-31T14:20:48.089Z,76.51
2022-12-31T14:24:21.748Z,77.38
2022-12-31T14:27:29.796Z,77.72
2022-12-31T14:30:40.401Z,78.16
2022-12-31T14:34:06.673Z,78.61
2022-12-31T14:37:24.192Z,78.34
2022-12-31T14:40:31.034Z,78.48
2022-12-31T14:44:03.502Z,78.82
2022-12-31T14:47:08.697Z,79.08
2022-12-31T14:50:11.194Z,79.61
2022-12-31T14:53:25.198Z,79.82
2022-12-31T14:56:44.739Z,80.36
2022-12-31T15:00:01.376Z,80.89
2022-12-31T15:03:14.679Z,80.61
2022-12-31T15:06:23.363Z,81.38
2022-12-31T15:09:58.230Z,81.00
2022-12-31T15:13:03.469Z,80.92
2022-12-31T15:16:35.360Z,80.92
2022-12-31T15:19:58.407Z,80.52
2022-12-31T15:23:01.045Z,80.57
2022-12-31T15:26:05.491Z,80.63
2022-12-31T15:29:24.353Z,80.75
2022-12-31T15:32:36.995Z,81.06
2022-12-31T15:35:55.135Z,80.98
2022-12-31T15:39:05.363Z,80.81
2022-12-31T15:42:49.853Z,81.18
2022-12-31T15:45:55.803Z,81.68
2022-12-31T15:49:06.829Z,81.55
2022-12-31T15:52:20.685Z,81.45
2022-12-31T15:55:29.208Z,81.66
2022-12-31T15:58:35.923Z,82.22
2022-12-31T16:01:41.469Z,82.26
2022-12-31T16:04:44.534Z,83.14
2022-12-31T16:07:47.423Z,82.62
2022-12-31T16:10:50.325Z,83.44
2022-12-31T16:13:56.037Z,83.57
2022-12-31T16:17:00.871Z,84.48
2022-12-31T16:20:31.406Z,84.86
2022-12-31T16:23:37.477Z,84.17
2022-12-31T16:26:48.235Z,84.30
2022-12-31T16:30:00.898Z,84.24
2022-12-31T16:33:07.063Z,84.59
2022-12-31T16:36:23.641Z,85.07
2022-12-31T16:39:32.348Z,84.80
2022-12-31T16:42:44.149Z,84.67
2022-12-31T16:45:47.108Z,84.82
2022-12-31T16:48:59.190Z,84.43
2022-12-31T16:52:22.940Z,84.44
2022-12-31T16:55:28.798Z,84.36
2022-12-31T16:58:34.650Z,84.72
2022-12-31T17:01:38.236Z,85.18
2022-12-31T17:04:46.923Z,85.15
2022-12-31T17:07:52.973Z,85.70
2022-12-31T17:10:56.527Z,85.58
2022-12-31T17:14:13.304Z,85.09
2022-12-31T17:17:27.781Z,85.00
2022-12-31T17:20:33.387Z,84.95
2022-12-31T17:23:39.646Z,85.24
2022-12-31T17:26:42.617Z,85.39
2022-12-31T17:29:45.215Z,85.29
2022-12-31T17:32:50.086Z,84.88
2022-12-31T17:36:17.291Z,84.70
2022-12-31T17:39:22.922Z,84.62
2022-12-31T17:42:37.593Z,84.77
2022-12-31T17:45:43.222Z,84.59
2022-12-31T17:48:51.937Z,85.02
2022-12-31T17:51:54.378Z,85.70
2022-12-31T17:54:57.178Z,86.10
2022-12-31T17:58:04.995Z,86.21
2022-12-31T18:01:08.980Z,85.80
2022-12-31T18:04:14.333Z,86.07
2022-12-31T18:07:16.795Z,86.97
2022-12-31T18:10:24.268Z,86.88
2022-12-31T18:13:27.748Z,86.42
2022-12-31T18:16:30.629Z,87.11
2022-12-31T18:22:55.981Z,87.82
2022-12-31T18:25:58.373Z,88.30
2022-12-31T18:29:12.192Z,88.35
2022-12-31T18:32:26.060Z,88.46
2022-12-31T18:38:50.950Z,87.73
2022-12-31T18:41:54.152Z,87.28
2022-12-31T18:44:56.643Z,87.31
2022-12-31T18:47:59.108Z,87.77
2022-12-31T18:51:01.599Z,87.43
2022-12-31T18:54:04.995Z,87.29
2022-12-31T18:57:07.543Z,87.31
2022-12-31T19:00:11.133Z,87.34
2022-12-31T19:03:21.723Z,87.49
2022-12-31T19:06:25.783Z,87.58
2022-12-31T19:09:45.247Z,87.40
2022-12-31T19:12:48.960Z,88.22
2022-12-31T19:15:53.356Z,88.55
2022-12-31T19:18:55.851Z,88.60
2022-12-31T19:21:58.304Z,88.66
2022-12-31T19:25:00.705Z,89.05
2022-12-31T19:28:06.256Z,89.22
2022-12-31T19:31:08.722Z,89.41
2022-12-31T19:34:11.550Z,89.51
2022-12-31T19:37:15.789Z,89.59
2022-12-31T19:40:22.119Z,90.27
2022-12-31T19:43:24.775Z,90.28
2022-12-31T19:46:28.478Z,90.54
2022-12-31T19:49:31.124Z,90.71
2022-12-31T19:52:33.561Z,90.50
2022-12-31T19:55:35.939Z,90.58
2022-12-31T19:58:38.604Z,90.87
2022-12-31T20:01:41.354Z,90.56
2022-12-31T20:04:43.946Z,90.38
2022-12-31T20:07:47.026Z,91.17
2022-12-31T20:10:50.557Z,90.46
2022-12-31T20:13:54.121Z,90.76
2022-12-31T20:16:56.755Z,91.06
2022-12-31T20:19:59.364Z,90.94
2022-12-31T20:23:02.712Z,90.67
2022-12-31T20:26:05.391Z,90.76
2022-12-31T20:29:07.887Z,90.35
2022-12-31T20:32:10.469Z,90.20
2022-12-31T20:35:12.877Z,90.39
2022-12-31T20:38:15.446Z,90.58
2022-12-31T20:41:21.328Z,91.01
2022-12-31T20:44:23.765Z,90.79
2022-12-31T20:47:26.185Z,90.54
2022-12-31T20:50:28.675Z,91.06
2022-12-31T20:53:31.102Z,90.89
2022-12-31T20:56:36.034Z,91.32
2022-12-31T20:59:38.550Z,91.19
2022-12-31T21:02:43.036Z,91.86
2022-12-31T21:05:54.559Z,91.92
2022-12-31T21:08:59.384Z,91.87
2022-12-31T21:12:20.570Z,92.40
2022-12-31T21:15:23.063Z,92.03
2022-12-31T21:18:25.917Z,91.75
2022-12-31T21:21:28.658Z,92.39
2022-12-31T21:24:31.163Z,91.97
2022-12-31T21:27:35.356Z,92.52
2022-12-31T21:30:39.954Z,92.62
2022-12-31T21:33:47.143Z,92.40
2022-12-31T21:36:49.595Z,91.88
2022-12-31T21:39:52.057Z,92.11
2022-12-31T21:42:54.869Z,92.02
2022-12-31T21:46:05.580Z,92.01
2022-12-31T21:49:08.111Z,92.18
2022-12-31T21:52:26.816Z,91.96
2022-12-31T21:55:47.673Z,91.80
2022-12-31T21:59:15.331Z,91.75
2022-12-31T22:02:36.172Z,91.80
2022-12-31T22:05:46.917Z,91.63
2022-12-31T22:08:53.173Z,91.72
2022-12-31T22:11:55.762Z,91.83
2022-12-31T22:15:14.538Z,91.98
2022-12-31T22:18:18.812Z,91.72
2022-12-31T22:21:23.973Z,91.77
2022-12-31T22:24:26.472Z,91.61
2022-12-31T22:27:30.052Z,91.62
2022-12-31T22:30:34.490Z,91.58
2022-12-31T22:33:37.156Z,92.29
2022-12-31T22:36:39.715Z,92.22
2022-12-31T22:39:44.085Z,92.25
2022-12-31T22:42:47.391Z,92.00
2022-12-31T22:45:49.800Z,91.91
2022-12-31T22:48:53.740Z,92.15
2022-12-31T22:52:00.737Z,92.52
2022-12-31T22:55:05.848Z,92.48
2022-12-31T22:58:08.277Z,92.77
2022-12-31T23:01:22.037Z,92.96
2022-12-31T23:04:24.479Z,92.90
2022-12-31T23:07:27.028Z,92.60
2022-12-31T23:10:48.445Z,92.51
2022-12-31T23:14:09.820Z,92.12
2022-12-31T23:17:37.160Z,91.83
2022-12-31T23:20:58.920Z,91.54
2022-12-31T23:24:04.336Z,91.83
2022-12-31T23:27:07.637Z,91.60
2022-12-31T23:30:11.600Z,91.46
2022-12-31T23:33:17.484Z,91.34
2022-12-31T23:36:19.999Z,91.29
2022-12-31T23:39:22.668Z,91.30
2022-12-31T23:42:25.196Z,91.32
2022-12-31T23:45:32.872Z,91.76
2022-12-31T23:48:35.959Z,91.44
2022-12-31T23:51:40.242Z,91.30
2022-12-31T23:54:42.729Z,91.61
2022-12-31T23:57:45.246Z,92.03
